sensor_id;sensor_type;location;lat;lon;timestamp;pressure;altitude;pressure_sealevel;temperature;humidity
37291;BME280;23175;-33.706;151.094;2023-04-24T00:00:15;101584.21;;;19.41;44.79
37291;BME280;23175;-33.706;151.094;2023-04-24T00:02:46;101579.94;;;18.48;45.16
37291;BME280;23175;-33.706;151.094;2023-04-24T00:05:17;101577.22;;;18.73;44.08
37291;BME280;23175;-33.706;151.094;2023-04-24T00:07:47;101576.68;;;16.80;47.04
37291;BME280;23175;-33.706;151.094;2023-04-24T00:10:18;101577.47;;;18.65;45.09
37291;BME280;23175;-33.706;151.094;2023-04-24T00:12:48;101578.82;;;20.05;43.36
37291;BME280;23175;-33.706;151.094;2023-04-24T00:15:18;101578.69;;;18.01;47.13
37291;BME280;23175;-33.706;151.094;2023-04-24T00:17:48;101577.08;;;17.88;45.01
37291;BME280;23175;-33.706;151.094;2023-04-24T00:20:18;101575.98;;;17.96;46.07
37291;BME280;23175;-33.706;151.094;2023-04-24T00:22:48;101576.38;;;18.89;44.87
37291;BME280;23175;-33.706;151.094;2023-04-24T00:25:19;101579.51;;;14.51;51.95
37291;BME280;23175;-33.706;151.094;2023-04-24T00:27:49;101571.83;;;17.87;45.54
37291;BME280;23175;-33.706;151.094;2023-04-24T00:30:19;101572.40;;;16.26;47.57
37291;BME280;23175;-33.706;151.094;2023-04-24T00:32:49;101566.15;;;17.34;45.44
37291;BME280;23175;-33.706;151.094;2023-04-24T00:35:20;101569.30;;;16.87;45.53
37291;BME280;23175;-33.706;151.094;2023-04-24T00:37:50;101563.99;;;16.20;46.88
37291;BME280;23175;-33.706;151.094;2023-04-24T00:40:20;101558.12;;;17.96;44.42
37291;BME280;23175;-33.706;151.094;2023-04-24T00:42:52;101561.67;;;15.69;46.82
37291;BME280;23175;-33.706;151.094;2023-04-24T00:45:22;101559.99;;;19.52;42.87
37291;BME280;23175;-33.706;151.094;2023-04-24T00:47:53;101557.57;;;18.89;42.66
37291;BME280;23175;-33.706;151.094;2023-04-24T00:50:25;101554.68;;;17.53;44.71
37291;BME280;23175;-33.706;151.094;2023-04-24T00:52:55;101553.84;;;18.54;43.00
37291;BME280;23175;-33.706;151.094;2023-04-24T00:55:27;101551.70;;;17.26;43.63
37291;BME280;23175;-33.706;151.094;2023-04-24T00:57:56;101550.51;;;18.16;43.89
37291;BME280;23175;-33.706;151.094;2023-04-24T01:00:27;101548.09;;;18.06;45.05
37291;BME280;23175;-33.706;151.094;2023-04-24T01:02:59;101545.49;;;17.35;44.56
37291;BME280;23175;-33.706;151.094;2023-04-24T01:05:31;101537.97;;;18.28;43.85
37291;BME280;23175;-33.706;151.094;2023-04-24T01:08:02;101539.34;;;17.91;42.93
37291;BME280;23175;-33.706;151.094;2023-04-24T01:10:34;101539.78;;;16.47;45.16
37291;BME280;23175;-33.706;151.094;2023-04-24T01:13:06;101537.82;;;18.78;41.74
37291;BME280;23175;-33.706;151.094;2023-04-24T01:15:37;101533.31;;;18.66;42.42
37291;BME280;23175;-33.706;151.094;2023-04-24T01:18:07;101533.98;;;19.22;42.40
37291;BME280;23175;-33.706;151.094;2023-04-24T01:20:38;101531.20;;;17.07;44.69
37291;BME280;23175;-33.706;151.094;2023-04-24T01:23:09;101524.54;;;19.19;42.00
37291;BME280;23175;-33.706;151.094;2023-04-24T01:25:39;101516.64;;;17.45;44.88
37291;BME280;23175;-33.706;151.094;2023-04-24T01:28:10;101509.30;;;16.29;45.98
37291;BME280;23175;-33.706;151.094;2023-04-24T01:30:40;101504.28;;;16.91;45.58
37291;BME280;23175;-33.706;151.094;2023-04-24T01:33:11;101497.10;;;18.13;42.91
37291;BME280;23175;-33.706;151.094;2023-04-24T01:35:41;101497.94;;;17.21;45.44
37291;BME280;23175;-33.706;151.094;2023-04-24T01:38:12;101501.14;;;16.88;45.40
37291;BME280;23175;-33.706;151.094;2023-04-24T01:40:42;101493.70;;;18.01;42.57
37291;BME280;23175;-33.706;151.094;2023-04-24T01:43:14;101491.48;;;17.40;43.44
37291;BME280;23175;-33.706;151.094;2023-04-24T01:45:44;101493.24;;;17.64;45.02
37291;BME280;23175;-33.706;151.094;2023-04-24T01:48:14;101488.35;;;19.16;41.24
37291;BME280;23175;-33.706;151.094;2023-04-24T01:50:45;101488.58;;;19.31;41.25
37291;BME280;23175;-33.706;151.094;2023-04-24T01:53:15;101483.88;;;18.12;43.27
37291;BME280;23175;-33.706;151.094;2023-04-24T01:55:45;101485.75;;;19.70;42.61
37291;BME280;23175;-33.706;151.094;2023-04-24T01:58:15;101480.63;;;17.33;45.02
37291;BME280;23175;-33.706;151.094;2023-04-24T02:00:46;101478.94;;;17.35;44.76
37291;BME280;23175;-33.706;151.094;2023-04-24T02:03:16;101476.13;;;18.17;45.06
37291;BME280;23175;-33.706;151.094;2023-04-24T02:05:46;101470.81;;;17.63;45.07
37291;BME280;23175;-33.706;151.094;2023-04-24T02:08:16;101470.57;;;16.89;47.45
37291;BME280;23175;-33.706;151.094;2023-04-24T02:10:46;101464.59;;;17.37;47.06
37291;BME280;23175;-33.706;151.094;2023-04-24T02:13:16;101462.64;;;16.67;46.78
37291;BME280;23175;-33.706;151.094;2023-04-24T02:15:47;101462.43;;;16.74;49.66
37291;BME280;23175;-33.706;151.094;2023-04-24T02:18:17;101459.77;;;16.55;49.58
37291;BME280;23175;-33.706;151.094;2023-04-24T02:20:47;101450.06;;;16.66;47.82
37291;BME280;23175;-33.706;151.094;2023-04-24T02:23:18;101448.51;;;18.00;46.61
37291;BME280;23175;-33.706;151.094;2023-04-24T02:25:48;101447.79;;;16.36;48.97
37291;BME280;23175;-33.706;151.094;2023-04-24T02:28:18;101441.84;;;16.37;48.57
37291;BME280;23175;-33.706;151.094;2023-04-24T02:30:48;101444.18;;;15.25;52.56
37291;BME280;23175;-33.706;151.094;2023-04-24T02:33:18;101440.07;;;17.92;47.63
37291;BME280;23175;-33.706;151.094;2023-04-24T02:35:49;101439.44;;;16.48;48.32
37291;BME280;23175;-33.706;151.094;2023-04-24T02:38:19;101434.17;;;18.15;46.49
37291;BME280;23175;-33.706;151.094;2023-04-24T02:40:49;101439.69;;;19.12;45.36
37291;BME280;23175;-33.706;151.094;2023-04-24T02:43:20;101445.69;;;16.27;52.47
37291;BME280;23175;-33.706;151.094;2023-04-24T02:45:50;101446.79;;;15.64;56.10
37291;BME280;23175;-33.706;151.094;2023-04-24T02:48:20;101437.99;;;16.53;54.22
37291;BME280;23175;-33.706;151.094;2023-04-24T02:50:51;101440.15;;;15.48;57.53
37291;BME280;23175;-33.706;151.094;2023-04-24T02:53:21;101435.12;;;16.77;54.54
37291;BME280;23175;-33.706;151.094;2023-04-24T02:56:02;101433.21;;;17.07;54.35
37291;BME280;23175;-33.706;151.094;2023-04-24T02:58:32;101429.01;;;17.97;52.57
37291;BME280;23175;-33.706;151.094;2023-04-24T03:01:02;101424.29;;;18.04;53.29
37291;BME280;23175;-33.706;151.094;2023-04-24T03:03:32;101416.64;;;18.84;50.95
37291;BME280;23175;-33.706;151.094;2023-04-24T03:06:02;101411.57;;;18.61;50.59
37291;BME280;23175;-33.706;151.094;2023-04-24T03:08:33;101403.89;;;18.78;47.84
37291;BME280;23175;-33.706;151.094;2023-04-24T03:11:03;101400.94;;;19.86;46.89
37291;BME280;23175;-33.706;151.094;2023-04-24T03:13:33;101396.31;;;19.19;48.64
37291;BME280;23175;-33.706;151.094;2023-04-24T03:16:04;101393.70;;;15.20;55.53
37291;BME280;23175;-33.706;151.094;2023-04-24T03:18:34;101392.36;;;16.00;52.56
37291;BME280;23175;-33.706;151.094;2023-04-24T03:21:05;101388.46;;;16.59;51.49
37291;BME280;23175;-33.706;151.094;2023-04-24T03:23:35;101393.10;;;15.16;54.61
37291;BME280;23175;-33.706;151.094;2023-04-24T03:26:05;101397.48;;;15.70;53.55
37291;BME280;23175;-33.706;151.094;2023-04-24T03:28:35;101395.97;;;16.91;53.11
37291;BME280;23175;-33.706;151.094;2023-04-24T03:31:05;101397.37;;;16.71;53.99
37291;BME280;23175;-33.706;151.094;2023-04-24T03:33:34;101399.00;;;16.38;55.81
37291;BME280;23175;-33.706;151.094;2023-04-24T03:36:05;101395.22;;;15.44;56.37
37291;BME280;23175;-33.706;151.094;2023-04-24T03:38:35;101394.77;;;15.54;58.35
37291;BME280;23175;-33.706;151.094;2023-04-24T03:41:05;101390.97;;;17.94;54.17
37291;BME280;23175;-33.706;151.094;2023-04-24T03:43:35;101389.18;;;16.26;57.27
37291;BME280;23175;-33.706;151.094;2023-04-24T03:46:06;101388.56;;;16.58;57.50
37291;BME280;23175;-33.706;151.094;2023-04-24T03:48:36;101382.20;;;16.71;58.06
37291;BME280;23175;-33.706;151.094;2023-04-24T03:51:06;101383.38;;;15.75;59.07
37291;BME280;23175;-33.706;151.094;2023-04-24T03:53:36;101378.97;;;17.92;54.94
37291;BME280;23175;-33.706;151.094;2023-04-24T03:56:07;101380.36;;;19.80;51.49
37291;BME280;23175;-33.706;151.094;2023-04-24T03:58:38;101380.08;;;19.24;52.93
37291;BME280;23175;-33.706;151.094;2023-04-24T04:01:08;101372.64;;;19.25;52.14
37291;BME280;23175;-33.706;151.094;2023-04-24T04:03:38;101370.52;;;17.91;54.08
37291;BME280;23175;-33.706;151.094;2023-04-24T04:06:08;101369.83;;;19.72;52.24
37291;BME280;23175;-33.706;151.094;2023-04-24T04:08:37;101366.41;;;19.24;52.41
37291;BME280;23175;-33.706;151.094;2023-04-24T04:11:07;101361.08;;;19.97;50.40
37291;BME280;23175;-33.706;151.094;2023-04-24T04:13:37;101361.70;;;18.32;53.91
37291;BME280;23175;-33.706;151.094;2023-04-24T04:16:09;101359.82;;;19.75;51.19
37291;BME280;23175;-33.706;151.094;2023-04-24T04:18:39;101359.90;;;19.89;51.26
37291;BME280;23175;-33.706;151.094;2023-04-24T04:21:09;101362.97;;;19.61;51.37
37291;BME280;23175;-33.706;151.094;2023-04-24T04:23:39;101362.75;;;18.87;52.00
37291;BME280;23175;-33.706;151.094;2023-04-24T04:26:09;101362.32;;;20.15;50.24
37291;BME280;23175;-33.706;151.094;2023-04-24T04:28:38;101357.29;;;20.29;49.51
37291;BME280;23175;-33.706;151.094;2023-04-24T04:31:08;101357.49;;;18.13;53.22
37291;BME280;23175;-33.706;151.094;2023-04-24T04:33:39;101354.73;;;20.29;49.39
37291;BME280;23175;-33.706;151.094;2023-04-24T04:36:08;101351.59;;;20.78;48.65
37291;BME280;23175;-33.706;151.094;2023-04-24T04:38:38;101354.16;;;19.88;49.42
37291;BME280;23175;-33.706;151.094;2023-04-24T04:41:09;101344.85;;;21.18;48.17
37291;BME280;23175;-33.706;151.094;2023-04-24T04:43:39;101341.52;;;20.42;49.50
37291;BME280;23175;-33.706;151.094;2023-04-24T04:46:10;101337.65;;;20.76;48.44
37291;BME280;23175;-33.706;151.094;2023-04-24T04:48:45;101336.60;;;21.42;48.52
37291;BME280;23175;-33.706;151.094;2023-04-24T04:51:15;101340.60;;;19.33;51.02
37291;BME280;23175;-33.706;151.094;2023-04-24T04:53:44;101343.92;;;19.49;51.06
37291;BME280;23175;-33.706;151.094;2023-04-24T04:56:15;101344.11;;;18.50;53.41
37291;BME280;23175;-33.706;151.094;2023-04-24T04:58:46;101342.14;;;20.48;49.91
37291;BME280;23175;-33.706;151.094;2023-04-24T05:01:16;101341.91;;;20.86;50.39
37291;BME280;23175;-33.706;151.094;2023-04-24T05:03:46;101342.15;;;14.31;62.30
37291;BME280;23175;-33.706;151.094;2023-04-24T05:06:16;101341.39;;;17.21;57.56
37291;BME280;23175;-33.706;151.094;2023-04-24T05:08:46;101338.09;;;17.10;57.14
37291;BME280;23175;-33.706;151.094;2023-04-24T05:11:16;101339.44;;;18.13;55.99
37291;BME280;23175;-33.706;151.094;2023-04-24T05:13:46;101336.34;;;18.92;54.80
37291;BME280;23175;-33.706;151.094;2023-04-24T05:16:17;101333.90;;;16.49;60.34
37291;BME280;23175;-33.706;151.094;2023-04-24T05:18:47;101333.20;;;18.44;55.02
37291;BME280;23175;-33.706;151.094;2023-04-24T05:21:17;101334.65;;;18.88;54.83
37291;BME280;23175;-33.706;151.094;2023-04-24T05:23:47;101337.76;;;18.73;54.24
37291;BME280;23175;-33.706;151.094;2023-04-24T05:26:17;101335.64;;;16.77;56.73
37291;BME280;23175;-33.706;151.094;2023-04-24T05:28:47;101333.31;;;17.65;54.31
37291;BME280;23175;-33.706;151.094;2023-04-24T05:31:17;101331.90;;;17.79;53.70
37291;BME280;23175;-33.706;151.094;2023-04-24T05:33:48;101331.93;;;18.36;53.58
37291;BME280;23175;-33.706;151.094;2023-04-24T05:36:18;101330.43;;;17.51;55.71
37291;BME280;23175;-33.706;151.094;2023-04-24T05:38:48;101329.66;;;17.43;54.25
37291;BME280;23175;-33.706;151.094;2023-04-24T05:41:18;101333.87;;;16.58;56.16
37291;BME280;23175;-33.706;151.094;2023-04-24T05:43:48;101336.44;;;16.19;56.18
37291;BME280;23175;-33.706;151.094;2023-04-24T05:46:18;101343.29;;;15.92;57.41
37291;BME280;23175;-33.706;151.094;2023-04-24T05:48:48;101343.17;;;17.96;53.69
37291;BME280;23175;-33.706;151.094;2023-04-24T05:51:18;101342.77;;;17.29;55.00
37291;BME280;23175;-33.706;151.094;2023-04-24T05:53:48;101347.50;;;14.60;60.47
37291;BME280;23175;-33.706;151.094;2023-04-24T05:56:20;101343.46;;;16.46;56.81
37291;BME280;23175;-33.706;151.094;2023-04-24T05:58:50;101344.79;;;16.91;56.54
37291;BME280;23175;-33.706;151.094;2023-04-24T06:01:20;101342.96;;;17.86;54.47
37291;BME280;23175;-33.706;151.094;2023-04-24T06:03:50;101338.15;;;16.53;56.01
37291;BME280;23175;-33.706;151.094;2023-04-24T06:06:21;101344.39;;;15.54;57.63
37291;BME280;23175;-33.706;151.094;2023-04-24T06:08:50;101347.81;;;16.54;56.47
37291;BME280;23175;-33.706;151.094;2023-04-24T06:11:20;101346.32;;;16.51;56.03
37291;BME280;23175;-33.706;151.094;2023-04-24T06:13:50;101347.15;;;17.32;54.30
37291;BME280;23175;-33.706;151.094;2023-04-24T06:16:20;101349.76;;;14.51;59.67
37291;BME280;23175;-33.706;151.094;2023-04-24T06:18:51;101350.52;;;16.73;55.29
37291;BME280;23175;-33.706;151.094;2023-04-24T06:21:21;101348.40;;;14.78;58.43
37291;BME280;23175;-33.706;151.094;2023-04-24T06:23:51;101346.42;;;17.14;55.15
37291;BME280;23175;-33.706;151.094;2023-04-24T06:26:21;101352.16;;;14.58;59.53
37291;BME280;23175;-33.706;151.094;2023-04-24T06:28:51;101347.72;;;17.49;54.48
37291;BME280;23175;-33.706;151.094;2023-04-24T06:31:21;101348.02;;;16.26;55.60
37291;BME280;23175;-33.706;151.094;2023-04-24T06:33:52;101353.36;;;14.98;58.62
37291;BME280;23175;-33.706;151.094;2023-04-24T06:36:22;101354.39;;;15.65;55.95
37291;BME280;23175;-33.706;151.094;2023-04-24T06:38:53;101353.10;;;18.97;51.14
37291;BME280;23175;-33.706;151.094;2023-04-24T06:41:23;101355.13;;;16.98;53.55
37291;BME280;23175;-33.706;151.094;2023-04-24T06:43:54;101353.15;;;18.05;51.33
37291;BME280;23175;-33.706;151.094;2023-04-24T06:46:24;101354.21;;;16.17;53.39
37291;BME280;23175;-33.706;151.094;2023-04-24T06:48:55;101352.12;;;19.70;47.96
37291;BME280;23175;-33.706;151.094;2023-04-24T06:51:25;101350.82;;;15.16;54.85
37291;BME280;23175;-33.706;151.094;2023-04-24T06:53:56;101351.65;;;16.60;53.18
37291;BME280;23175;-33.706;151.094;2023-04-24T06:56:26;101352.16;;;18.38;50.37
37291;BME280;23175;-33.706;151.094;2023-04-24T06:58:57;101355.67;;;20.25;47.97
37291;BME280;23175;-33.706;151.094;2023-04-24T07:01:27;101354.38;;;19.47;48.35
37291;BME280;23175;-33.706;151.094;2023-04-24T07:03:57;101355.35;;;19.34;48.35
37291;BME280;23175;-33.706;151.094;2023-04-24T07:06:26;101357.09;;;18.60;49.43
37291;BME280;23175;-33.706;151.094;2023-04-24T07:08:56;101356.85;;;16.63;52.91
37291;BME280;23175;-33.706;151.094;2023-04-24T07:11:26;101363.23;;;15.94;53.50
37291;BME280;23175;-33.706;151.094;2023-04-24T07:13:56;101364.82;;;15.12;55.71
37291;BME280;23175;-33.706;151.094;2023-04-24T07:16:26;101363.94;;;17.63;51.14
37291;BME280;23175;-33.706;151.094;2023-04-24T07:18:56;101370.13;;;15.98;54.22
37291;BME280;23175;-33.706;151.094;2023-04-24T07:21:26;101370.71;;;15.98;52.29
37291;BME280;23175;-33.706;151.094;2023-04-24T07:23:56;101379.83;;;15.81;55.51
37291;BME280;23175;-33.706;151.094;2023-04-24T07:26:27;101381.46;;;16.84;51.85
37291;BME280;23175;-33.706;151.094;2023-04-24T07:28:58;101380.21;;;15.42;53.53
37291;BME280;23175;-33.706;151.094;2023-04-24T07:31:28;101379.83;;;17.27;51.03
37291;BME280;23175;-33.706;151.094;2023-04-24T07:33:58;101382.71;;;17.34;50.42
37291;BME280;23175;-33.706;151.094;2023-04-24T07:36:28;101381.31;;;18.13;49.29
37291;BME280;23175;-33.706;151.094;2023-04-24T07:38:59;101381.36;;;18.40;48.61
37291;BME280;23175;-33.706;151.094;2023-04-24T07:41:29;101382.64;;;17.33;51.21
37291;BME280;23175;-33.706;151.094;2023-04-24T07:43:59;101386.92;;;16.53;51.99
37291;BME280;23175;-33.706;151.094;2023-04-24T07:46:31;101388.36;;;18.52;48.82
37291;BME280;23175;-33.706;151.094;2023-04-24T07:49:01;101388.25;;;16.98;50.98
37291;BME280;23175;-33.706;151.094;2023-04-24T07:51:32;101389.77;;;18.83;47.91
37291;BME280;23175;-33.706;151.094;2023-04-24T07:54:02;101392.60;;;15.69;52.73
37291;BME280;23175;-33.706;151.094;2023-04-24T07:56:32;101392.93;;;17.73;49.25
37291;BME280;23175;-33.706;151.094;2023-04-24T07:59:03;101397.22;;;18.58;48.16
37291;BME280;23175;-33.706;151.094;2023-04-24T08:01:32;101393.68;;;18.96;47.47
37291;BME280;23175;-33.706;151.094;2023-04-24T08:04:02;101397.49;;;18.12;49.46
37291;BME280;23175;-33.706;151.094;2023-04-24T08:06:32;101397.00;;;18.08;49.14
37291;BME280;23175;-33.706;151.094;2023-04-24T08:09:03;101400.14;;;19.11;47.28
37291;BME280;23175;-33.706;151.094;2023-04-24T08:11:33;101402.55;;;19.34;47.51
37291;BME280;23175;-33.706;151.094;2023-04-24T08:14:04;101411.02;;;16.63;51.88
37291;BME280;23175;-33.706;151.094;2023-04-24T08:16:36;101407.56;;;18.00;49.73
37291;BME280;23175;-33.706;151.094;2023-04-24T08:19:06;101414.96;;;15.94;52.99
37291;BME280;23175;-33.706;151.094;2023-04-24T08:21:36;101421.06;;;15.55;53.46
37291;BME280;23175;-33.706;151.094;2023-04-24T08:24:07;101420.17;;;17.97;50.99
37291;BME280;23175;-33.706;151.094;2023-04-24T08:26:37;101427.76;;;15.78;55.58
37291;BME280;23175;-33.706;151.094;2023-04-24T08:29:08;101424.67;;;16.11;54.07
37291;BME280;23175;-33.706;151.094;2023-04-24T08:31:38;101428.37;;;18.17;51.96
37291;BME280;23175;-33.706;151.094;2023-04-24T08:34:08;101438.63;;;16.91;54.89
37291;BME280;23175;-33.706;151.094;2023-04-24T08:36:39;101441.55;;;13.83;60.58
37291;BME280;23175;-33.706;151.094;2023-04-24T08:39:09;101437.69;;;14.22;61.49
37291;BME280;23175;-33.706;151.094;2023-04-24T08:41:39;101437.58;;;17.18;55.83
37291;BME280;23175;-33.706;151.094;2023-04-24T08:44:10;101441.13;;;16.74;57.00
37291;BME280;23175;-33.706;151.094;2023-04-24T08:46:41;101441.55;;;18.04;53.63
37291;BME280;23175;-33.706;151.094;2023-04-24T08:49:12;101445.70;;;17.97;53.33
37291;BME280;23175;-33.706;151.094;2023-04-24T08:51:43;101450.90;;;17.69;54.60
37291;BME280;23175;-33.706;151.094;2023-04-24T08:54:14;101449.97;;;17.86;53.80
37291;BME280;23175;-33.706;151.094;2023-04-24T08:56:45;101450.88;;;19.11;52.12
37291;BME280;23175;-33.706;151.094;2023-04-24T08:59:17;101454.54;;;19.81;51.00
37291;BME280;23175;-33.706;151.094;2023-04-24T09:01:47;101451.67;;;18.19;53.16
37291;BME280;23175;-33.706;151.094;2023-04-24T09:04:18;101449.43;;;19.23;50.67
37291;BME280;23175;-33.706;151.094;2023-04-24T09:06:51;101454.65;;;15.06;57.07
37291;BME280;23175;-33.706;151.094;2023-04-24T09:09:21;101450.26;;;18.94;51.10
37291;BME280;23175;-33.706;151.094;2023-04-24T09:11:53;101448.14;;;19.43;50.32
37291;BME280;23175;-33.706;151.094;2023-04-24T09:14:24;101448.40;;;19.38;49.78
37291;BME280;23175;-33.706;151.094;2023-04-24T09:16:54;101448.47;;;19.25;50.51
37291;BME280;23175;-33.706;151.094;2023-04-24T09:19:24;101448.15;;;19.62;50.12
37291;BME280;23175;-33.706;151.094;2023-04-24T09:21:55;101449.47;;;19.75;50.14
37291;BME280;23175;-33.706;151.094;2023-04-24T09:24:26;101453.61;;;13.83;61.24
37291;BME280;23175;-33.706;151.094;2023-04-24T09:26:58;101451.89;;;18.12;53.73
37291;BME280;23175;-33.706;151.094;2023-04-24T09:29:29;101459.97;;;17.21;55.60
37291;BME280;23175;-33.706;151.094;2023-04-24T09:32:00;101458.42;;;17.35;55.25
37291;BME280;23175;-33.706;151.094;2023-04-24T09:34:48;101461.18;;;16.74;55.61
37291;BME280;23175;-33.706;151.094;2023-04-24T09:37:29;101461.85;;;16.52;56.42
37291;BME280;23175;-33.706;151.094;2023-04-24T09:40:17;101458.57;;;17.81;52.90
37291;BME280;23175;-33.706;151.094;2023-04-24T09:42:52;101459.27;;;18.46;52.44
37291;BME280;23175;-33.706;151.094;2023-04-24T09:45:23;101458.73;;;19.01;51.91
37291;BME280;23175;-33.706;151.094;2023-04-24T09:47:56;101458.09;;;18.00;53.30
37291;BME280;23175;-33.706;151.094;2023-04-24T09:50:26;101457.22;;;17.86;53.86
37291;BME280;23175;-33.706;151.094;2023-04-24T09:53:01;101456.55;;;19.04;51.54
37291;BME280;23175;-33.706;151.094;2023-04-24T09:55:31;101454.90;;;19.43;50.65
37291;BME280;23175;-33.706;151.094;2023-04-24T09:58:03;101455.28;;;17.66;53.50
37291;BME280;23175;-33.706;151.094;2023-04-24T10:00:34;101458.13;;;19.43;51.51
37291;BME280;23175;-33.706;151.094;2023-04-24T10:03:05;101458.46;;;18.16;53.39
37291;BME280;23175;-33.706;151.094;2023-04-24T10:05:36;101459.76;;;19.52;50.52
37291;BME280;23175;-33.706;151.094;2023-04-24T10:08:08;101459.54;;;19.81;50.08
37291;BME280;23175;-33.706;151.094;2023-04-24T10:10:41;101460.37;;;19.75;50.14
37291;BME280;23175;-33.706;151.094;2023-04-24T10:13:12;101461.71;;;19.83;50.04
37291;BME280;23175;-33.706;151.094;2023-04-24T10:15:43;101461.31;;;19.72;50.11
37291;BME280;23175;-33.706;151.094;2023-04-24T10:18:13;101460.19;;;19.81;49.96
37291;BME280;23175;-33.706;151.094;2023-04-24T10:20:43;101461.74;;;19.53;50.10
37291;BME280;23175;-33.706;151.094;2023-04-24T10:23:13;101459.33;;;19.69;49.71
37291;BME280;23175;-33.706;151.094;2023-04-24T10:25:44;101457.63;;;19.57;49.88
37291;BME280;23175;-33.706;151.094;2023-04-24T10:28:15;101459.35;;;19.56;49.84
37291;BME280;23175;-33.706;151.094;2023-04-24T10:30:47;101455.68;;;19.89;49.88
37291;BME280;23175;-33.706;151.094;2023-04-24T10:33:17;101451.54;;;20.07;49.68
37291;BME280;23175;-33.706;151.094;2023-04-24T10:35:50;101451.17;;;19.73;50.13
37291;BME280;23175;-33.706;151.094;2023-04-24T10:38:27;101445.81;;;19.95;49.58
37291;BME280;23175;-33.706;151.094;2023-04-24T10:41:08;101443.95;;;19.22;49.65
37291;BME280;23175;-33.706;151.094;2023-04-24T10:43:41;101446.18;;;19.98;49.46
37291;BME280;23175;-33.706;151.094;2023-04-24T10:46:11;101446.35;;;19.89;49.51
37291;BME280;23175;-33.706;151.094;2023-04-24T10:48:54;101448.80;;;19.52;49.74
37291;BME280;23175;-33.706;151.094;2023-04-24T10:51:24;101450.11;;;19.62;49.38
37291;BME280;23175;-33.706;151.094;2023-04-24T10:54:24;101452.55;;;19.79;49.23
37291;BME280;23175;-33.706;151.094;2023-04-24T10:57:25;101448.43;;;19.75;49.18
37291;BME280;23175;-33.706;151.094;2023-04-24T11:00:15;101449.11;;;19.71;49.27
37291;BME280;23175;-33.706;151.094;2023-04-24T11:02:47;101448.82;;;19.50;49.54
37291;BME280;23175;-33.706;151.094;2023-04-24T11:05:18;101447.26;;;19.62;49.29
37291;BME280;23175;-33.706;151.094;2023-04-24T11:09:02;101449.71;;;19.37;49.70
37291;BME280;23175;-33.706;151.094;2023-04-24T11:11:34;101448.33;;;19.46;49.40
37291;BME280;23175;-33.706;151.094;2023-04-24T11:14:07;101446.86;;;19.32;49.56
37291;BME280;23175;-33.706;151.094;2023-04-24T11:16:42;101446.87;;;19.32;49.42
37291;BME280;23175;-33.706;151.094;2023-04-24T11:19:22;101445.56;;;19.22;49.58
37291;BME280;23175;-33.706;151.094;2023-04-24T11:21:58;101449.52;;;18.98;50.03
37291;BME280;23175;-33.706;151.094;2023-04-24T11:24:32;101445.24;;;18.81;50.41
37291;BME280;23175;-33.706;151.094;2023-04-24T11:27:12;101445.08;;;19.28;49.47
37291;BME280;23175;-33.706;151.094;2023-04-24T11:29:46;101443.57;;;18.49;51.55
37291;BME280;23175;-33.706;151.094;2023-04-24T11:32:25;101442.35;;;18.12;51.20
37291;BME280;23175;-33.706;151.094;2023-04-24T11:34:58;101443.02;;;19.20;50.11
37291;BME280;23175;-33.706;151.094;2023-04-24T11:37:33;101440.96;;;19.11;49.61
37291;BME280;23175;-33.706;151.094;2023-04-24T11:40:05;101441.55;;;18.95;49.90
37291;BME280;23175;-33.706;151.094;2023-04-24T11:42:37;101439.42;;;19.01;49.58
37291;BME280;23175;-33.706;151.094;2023-04-24T11:45:11;101437.48;;;19.28;49.98
37291;BME280;23175;-33.706;151.094;2023-04-24T11:47:42;101438.04;;;18.82;50.19
37291;BME280;23175;-33.706;151.094;2023-04-24T11:50:14;101435.69;;;18.32;50.97
37291;BME280;23175;-33.706;151.094;2023-04-24T11:52:46;101435.94;;;18.82;49.96
37291;BME280;23175;-33.706;151.094;2023-04-24T11:55:30;101430.48;;;18.50;50.45
37291;BME280;23175;-33.706;151.094;2023-04-24T11:58:00;101429.54;;;19.03;49.58
37291;BME280;23175;-33.706;151.094;2023-04-24T12:00:32;101430.82;;;18.88;49.86
37291;BME280;23175;-33.706;151.094;2023-04-24T12:03:07;101427.44;;;19.40;49.58
37291;BME280;23175;-33.706;151.094;2023-04-24T12:05:39;101425.61;;;18.82;49.85
37291;BME280;23175;-33.706;151.094;2023-04-24T12:08:08;101421.69;;;19.08;49.44
37291;BME280;23175;-33.706;151.094;2023-04-24T12:10:40;101419.37;;;19.03;49.52
37291;BME280;23175;-33.706;151.094;2023-04-24T12:13:11;101419.11;;;19.22;49.27
37291;BME280;23175;-33.706;151.094;2023-04-24T12:15:41;101417.54;;;19.19;49.22
37291;BME280;23175;-33.706;151.094;2023-04-24T12:18:13;101414.42;;;19.08;49.48
37291;BME280;23175;-33.706;151.094;2023-04-24T12:20:43;101412.97;;;18.17;51.27
37291;BME280;23175;-33.706;151.094;2023-04-24T12:23:13;101408.12;;;19.07;49.79
37291;BME280;23175;-33.706;151.094;2023-04-24T12:25:43;101403.15;;;19.63;49.98
37291;BME280;23175;-33.706;151.094;2023-04-24T12:28:14;101398.28;;;18.11;51.02
37291;BME280;23175;-33.706;151.094;2023-04-24T12:30:47;101395.46;;;18.77;51.10
37291;BME280;23175;-33.706;151.094;2023-04-24T12:33:20;101391.33;;;18.85;50.09
37291;BME280;23175;-33.706;151.094;2023-04-24T12:35:53;101388.84;;;18.86;49.95
37291;BME280;23175;-33.706;151.094;2023-04-24T12:38:26;101386.23;;;18.78;50.04
37291;BME280;23175;-33.706;151.094;2023-04-24T12:41:04;101382.98;;;19.02;50.15